Time;durP1;ratioP1;P1;durP2;ratioP2;P2;SDS_P1;SDS_P2;PMS_P1;PMS_P2;Temp;Humidity;BMP_temperature;BMP_pressure;BME280_temperature;BME280_humidity;BME280_pressure;Samples;Min_cycle;Max_cycle;Signal;HPM_P1;HPM_P2
2021/08/16 00:02:18;;;;;;;1.77;1.67;;;;;;;22.78;67.20;98272.31;5013564;28;41381;-85
2021/08/16 00:04:45;;;;;;;2.97;2.67;;;;;;;22.73;67.54;98267.47;5032026;28;40915;-85
2021/08/16 00:07:13;;;;;;;2.27;1.90;;;;;;;22.79;67.43;98271.28;5048458;28;42528;-84
2021/08/16 00:09:41;;;;;;;1.83;1.73;;;;;;;22.79;67.04;98274.00;5031520;28;42916;-85
2021/08/16 00:12:09;;;;;;;1.80;1.60;;;;;;;22.84;67.00;98280.53;5013220;28;41298;-85
2021/08/16 00:14:36;;;;;;;2.67;1.67;;;;;;;22.81;67.87;98274.66;5031087;28;40057;-84
2021/08/16 00:17:06;;;;;;;2.30;1.70;;;;;;;22.72;67.53;98270.34;5010862;28;41150;-84
2021/08/16 00:19:34;;;;;;;2.10;1.70;;;;;;;22.72;67.61;98259.56;5011340;28;41756;-84
2021/08/16 00:22:01;;;;;;;1.97;1.57;;;;;;;22.79;67.57;98271.28;5013763;28;41524;-84
2021/08/16 00:24:29;;;;;;;3.90;1.73;;;;;;;22.57;67.26;98240.66;5017563;28;39900;-84
2021/08/16 00:26:56;;;;;;;2.57;1.73;;;;;;;22.68;67.47;98255.53;5014599;28;40811;-84
2021/08/16 00:29:24;;;;;;;1.27;1.13;;;;;;;22.73;67.64;98261.22;5014258;28;42620;-84
2021/08/16 00:31:52;;;;;;;1.67;1.57;;;;;;;22.71;67.72;98252.47;5017697;28;41242;-85
2021/08/16 00:34:21;;;;;;;1.97;1.47;;;;;;;22.68;67.23;98253.69;5017695;28;39877;-85
2021/08/16 00:36:59;;;;;;;2.17;1.53;;;;;;;22.52;67.04;98238.50;5015704;28;40962;-84
2021/08/16 00:39:27;;;;;;;1.37;1.20;;;;;;;22.24;66.36;98202.44;5030932;28;42971;-85
2021/08/16 00:41:55;;;;;;;1.30;1.20;;;;;;;22.48;66.44;98250.72;5016803;28;41326;-85
2021/08/16 00:44:23;;;;;;;2.63;2.20;;;;;;;22.47;66.52;98246.34;5030971;28;40936;-85
2021/08/16 00:46:52;;;;;;;1.70;1.60;;;;;;;22.46;66.75;98243.84;5013576;28;40573;-84
2021/08/16 00:49:21;;;;;;;2.00;1.77;;;;;;;22.35;66.96;98226.25;5029516;28;42726;-85
2021/08/16 00:51:48;;;;;;;1.60;1.43;;;;;;;22.34;66.88;98224.56;5030318;28;41583;-85
2021/08/16 00:54:16;;;;;;;1.90;1.50;;;;;;;22.29;67.08;98237.75;5014446;28;40281;-85
2021/08/16 00:56:44;;;;;;;2.50;1.60;;;;;;;22.23;66.61;98238.53;5030419;28;42136;-85
2021/08/16 00:59:14;;;;;;;2.10;1.90;;;;;;;22.08;66.69;98218.78;5016621;28;41864;-84
2021/08/16 01:01:42;;;;;;;1.70;1.13;;;;;;;22.12;66.57;98230.88;5017208;28;41617;-85
2021/08/16 01:04:10;;;;;;;1.67;1.53;;;;;;;22.06;66.77;98231.59;5031610;28;41234;-85
2021/08/16 01:06:39;;;;;;;2.00;1.70;;;;;;;22.14;66.72;98236.91;5013914;28;41070;-84
2021/08/16 01:09:06;;;;;;;2.43;1.37;;;;;;;22.14;67.02;98239.59;5030712;28;42733;-85
2021/08/16 01:11:34;;;;;;;1.40;1.30;;;;;;;22.01;67.33;98228.59;5029739;28;43262;-85
2021/08/16 01:14:02;;;;;;;1.63;1.53;;;;;;;22.10;67.91;98232.91;5031120;28;40974;-85
2021/08/16 01:16:29;;;;;;;1.80;1.50;;;;;;;21.93;67.75;98207.09;5049713;28;41976;-84
2021/08/16 01:18:57;;;;;;;1.30;1.20;;;;;;;22.05;68.12;98219.97;5018385;28;43057;-84
2021/08/16 01:21:25;;;;;;;2.20;1.53;;;;;;;22.15;69.66;98231.34;5017966;28;41540;-83
2021/08/16 01:23:54;;;;;;;2.67;1.90;;;;;;;22.13;69.72;98222.59;5017616;28;39759;-85
2021/08/16 01:26:22;;;;;;;1.93;1.30;;;;;;;22.24;70.06;98228.56;5029618;28;42672;-84
2021/08/16 01:28:51;;;;;;;1.80;1.70;;;;;;;22.15;69.51;98208.91;5032101;28;42874;-84
2021/08/16 01:31:19;;;;;;;2.17;1.90;;;;;;;22.37;69.55;98234.16;5012864;28;42697;-85
2021/08/16 01:33:47;;;;;;;1.80;1.50;;;;;;;22.39;69.18;98230.22;5046202;28;39329;-84
2021/08/16 01:36:14;;;;;;;1.33;1.10;;;;;;;22.46;69.46;98233.88;4996663;28;40568;-84
2021/08/16 01:38:43;;;;;;;1.30;1.20;;;;;;;22.43;69.12;98219.91;5046764;28;43716;-84
2021/08/16 01:41:11;;;;;;;1.90;1.63;;;;;;;22.52;69.89;98233.13;5029449;28;43013;-84
2021/08/16 01:43:39;;;;;;;1.67;1.50;;;;;;;22.53;69.65;98229.41;5013709;28;38906;-85
2021/08/16 01:46:08;;;;;;;2.97;1.97;;;;;;;22.47;69.84;98211.28;5016969;28;41039;-84
2021/08/16 01:48:35;;;;;;;1.70;1.40;;;;;;;22.55;69.09;98221.94;5033481;28;43028;-84
2021/08/16 01:51:03;;;;;;;1.80;1.50;;;;;;;22.38;69.79;98190.78;5016307;28;41728;-84
2021/08/16 01:53:31;;;;;;;1.63;1.40;;;;;;;22.51;69.55;98220.63;5013471;28;38978;-84
2021/08/16 01:55:59;;;;;;;1.33;1.23;;;;;;;22.48;69.21;98223.75;5029401;28;41126;-85
2021/08/16 01:58:27;;;;;;;1.93;1.70;;;;;;;22.40;69.18;98213.00;5013619;28;42045;-84
2021/08/16 02:00:54;;;;;;;1.73;1.50;;;;;;;22.39;69.01;98205.94;5012271;28;41568;-85
2021/08/16 02:03:29;;;;;;;1.50;1.30;;;;;;;22.39;69.46;98199.72;5032252;28;40786;-84
2021/08/16 02:05:57;;;;;;;2.63;1.57;;;;;;;22.47;69.69;98213.97;5032874;28;42629;-84
2021/08/16 02:08:24;;;;;;;1.83;1.47;;;;;;;22.37;69.26;98197.22;5033807;28;44625;-84
2021/08/16 02:10:52;;;;;;;2.03;1.30;;;;;;;22.45;69.62;98216.00;5016901;28;41450;-85
2021/08/16 02:13:19;;;;;;;1.70;1.23;;;;;;;22.37;69.20;98199.94;5013480;28;40028;-84
2021/08/16 02:15:47;;;;;;;1.77;1.40;;;;;;;22.47;69.50;98213.97;5046833;28;41984;-84
2021/08/16 02:18:15;;;;;;;2.20;2.00;;;;;;;22.48;69.32;98206.72;5031302;28;42262;-84
2021/08/16 02:20:44;;;;;;;2.07;1.63;;;;;;;22.48;69.98;98207.53;5017117;28;42171;-84
2021/08/16 02:23:11;;;;;;;1.30;1.20;;;;;;;22.26;69.96;98167.16;5015853;28;39278;-85
2021/08/16 02:25:39;;;;;;;1.70;1.60;;;;;;;22.58;69.59;98207.25;5032295;28;40664;-84
2021/08/16 02:28:06;;;;;;;1.43;1.33;;;;;;;22.55;69.68;98180.63;5012372;28;43385;-84
2021/08/16 02:30:34;;;;;;;1.50;1.40;;;;;;;22.52;69.14;98168.34;5028598;28;42471;-84
2021/08/16 02:33:02;;;;;;;2.73;2.03;;;;;;;22.66;69.75;98179.31;5012199;28;38943;-84
2021/08/16 02:35:30;;;;;;;2.17;1.87;;;;;;;22.77;69.76;98192.34;5047541;28;41861;-84
2021/08/16 02:37:59;;;;;;;1.33;1.23;;;;;;;22.77;69.50;98193.19;5032733;28;41720;-85
2021/08/16 02:40:27;;;;;;;1.63;1.23;;;;;;;22.83;69.34;98202.41;5015783;28;42467;-84
2021/08/16 02:42:55;;;;;;;1.50;1.40;;;;;;;22.82;69.63;98192.63;5012846;28;39211;-85
2021/08/16 02:45:23;;;;;;;1.90;1.60;;;;;;;22.71;69.40;98185.00;5011901;28;40797;-85
2021/08/16 02:47:50;;;;;;;1.70;1.60;;;;;;;22.70;69.72;98180.63;5012262;28;42029;-83
2021/08/16 02:50:18;;;;;;;1.90;1.20;;;;;;;22.65;69.82;98189.28;5011749;28;41573;-85
2021/08/16 02:52:46;;;;;;;1.90;1.80;;;;;;;22.76;69.77;98201.47;5011832;28;39865;-84
2021/08/16 02:55:16;;;;;;;1.47;1.37;;;;;;;22.81;69.57;98204.44;5014712;28;41208;-85
2021/08/16 02:57:43;;;;;;;1.83;1.70;;;;;;;22.79;69.03;98210.03;5015443;28;42103;-84
2021/08/16 03:00:13;;;;;;;1.40;1.30;;;;;;;22.87;68.83;98222.63;5033219;28;42027;-84
2021/08/16 03:02:42;;;;;;;1.50;1.40;;;;;;;22.94;68.51;98226.22;5011824;28;38980;-84
2021/08/16 03:05:11;;;;;;;1.47;1.37;;;;;;;23.03;68.58;98221.53;5044950;28;41778;-85
2021/08/16 03:07:38;;;;;;;1.70;1.30;;;;;;;22.90;68.58;98208.72;5028960;28;42784;-85
2021/08/16 03:10:07;;;;;;;2.17;1.53;;;;;;;22.86;68.65;98207.44;5028511;28;41385;-85
2021/08/16 03:12:36;;;;;;;1.57;1.40;;;;;;;22.76;69.04;98212.28;5015103;28;38992;-85
2021/08/16 03:15:05;;;;;;;1.17;1.17;;;;;;;22.79;69.12;98228.94;5012346;28;40675;-85
2021/08/16 03:17:33;;;;;;;2.00;1.80;;;;;;;22.69;69.29;98231.06;5045370;28;43024;-85
2021/08/16 03:20:00;;;;;;;1.83;1.30;;;;;;;22.72;69.66;98248.75;5028916;28;42426;-86
2021/08/16 03:22:28;;;;;;;1.33;1.20;;;;;;;22.51;69.39;98212.53;5045438;28;40421;-84
2021/08/16 03:24:56;;;;;;;1.47;1.30;;;;;;;22.58;69.58;98231.53;5012197;28;41124;-83
2021/08/16 03:27:25;;;;;;;2.27;1.87;;;;;;;22.70;69.13;98248.94;5030385;28;43046;-84
2021/08/16 03:29:54;;;;;;;1.77;1.60;;;;;;;22.64;69.45;98240.72;5031993;28;42191;-85
2021/08/16 03:32:22;;;;;;;2.10;1.70;;;;;;;22.62;69.40;98232.00;5030972;28;39065;-85
2021/08/16 03:34:50;;;;;;;1.50;1.40;;;;;;;22.62;69.15;98242.81;5015976;28;41208;-85
2021/08/16 03:37:17;;;;;;;2.40;2.03;;;;;;;22.50;69.39;98227.06;5037788;28;42767;-85
2021/08/16 03:39:45;;;;;;;1.67;1.33;;;;;;;22.49;69.45;98232.66;5012620;28;42512;-85
2021/08/16 03:42:13;;;;;;;1.60;1.33;;;;;;;22.47;69.67;98238.25;5044814;28;42160;-85
2021/08/16 03:44:41;;;;;;;1.73;1.63;;;;;;;22.34;69.36;98232.66;5014934;28;41036;-85
2021/08/16 03:47:11;;;;;;;2.40;2.20;;;;;;;22.30;69.98;98227.81;5031132;28;42851;-85
2021/08/16 03:49:39;;;;;;;1.63;1.40;;;;;;;22.30;69.70;98250.22;5030818;28;41651;-84
2021/08/16 03:52:07;;;;;;;2.07;1.87;;;;;;;22.28;70.36;98254.13;5011535;28;39209;-85
2021/08/16 03:54:35;;;;;;;2.27;1.47;;;;;;;22.16;70.66;98248.34;5011837;28;42134;-85
2021/08/16 03:57:03;;;;;;;2.03;1.37;;;;;;;21.89;70.27;98220.09;5030723;28;43047;-85
2021/08/16 03:59:32;;;;;;;2.13;1.60;;;;;;;22.17;70.30;98267.06;5034470;28;41837;-85
2021/08/16 04:02:00;;;;;;;1.83;1.63;;;;;;;22.12;70.24;98280.25;5016677;28;39906;-85
2021/08/16 04:04:29;;;;;;;2.60;1.70;;;;;;;22.10;70.67;98270.69;5017533;28;40753;-85
2021/08/16 04:06:57;;;;;;;1.47;1.37;;;;;;;22.05;70.92;98273.06;5034663;28;42150;-85
2021/08/16 04:09:25;;;;;;;3.23;2.67;;;;;;;21.99;70.90;98258.47;5030999;28;41240;-85
2021/08/16 04:11:53;;;;;;;1.60;1.50;;;;;;;21.98;70.99;98272.94;5014859;28;39034;-85
2021/08/16 04:14:20;;;;;;;1.67;1.23;;;;;;;21.87;71.74;98268.00;5032230;28;41574;-85
2021/08/16 04:16:48;;;;;;;1.77;1.60;;;;;;;21.85;71.47;98278.94;5015103;28;41718;-85
2021/08/16 04:19:17;;;;;;;2.10;1.50;;;;;;;21.88;71.89;98285.84;5047649;28;42514;-85
2021/08/16 04:21:46;;;;;;;1.60;1.47;;;;;;;21.85;71.80;98289.75;5031642;28;38724;-86
2021/08/16 04:24:13;;;;;;;2.17;1.60;;;;;;;21.75;71.61;98266.75;5014723;28;40776;-85
2021/08/16 04:26:41;;;;;;;1.30;1.20;;;;;;;21.72;71.79;98262.53;5018387;28;43183;-86
2021/08/16 04:29:09;;;;;;;2.97;2.13;;;;;;;21.81;71.56;98276.78;5034502;28;43245;-86
2021/08/16 04:31:37;;;;;;;1.37;1.17;;;;;;;21.79;71.30;98285.06;5015112;28;40146;-85
2021/08/16 04:34:06;;;;;;;2.03;1.30;;;;;;;21.49;71.07;98232.09;5014894;28;41619;-86
2021/08/16 04:36:33;;;;;;;1.80;1.70;;;;;;;21.75;71.29;98286.47;5014234;28;43249;-85
2021/08/16 04:39:02;;;;;;;2.37;2.13;;;;;;;21.73;71.23;98301.97;5031037;28;41990;-84
2021/08/16 04:41:30;;;;;;;2.10;1.57;;;;;;;21.69;70.95;98303.31;5032245;28;40297;-85
2021/08/16 04:43:58;;;;;;;1.63;1.47;;;;;;;21.61;70.51;98307.94;5030372;28;42122;-86
2021/08/16 04:46:26;;;;;;;1.83;1.67;;;;;;;21.71;70.72;98320.16;5031333;28;43882;-86
2021/08/16 04:48:53;;;;;;;1.43;1.30;;;;;;;21.75;70.53;98320.66;5014359;28;42407;-85
2021/08/16 04:51:21;;;;;;;1.73;1.57;;;;;;;21.70;70.31;98307.72;5014355;28;38979;-85
2021/08/16 04:53:49;;;;;;;1.97;1.47;;;;;;;21.67;69.92;98301.81;5013816;28;42444;-85
2021/08/16 04:56:18;;;;;;;1.57;1.30;;;;;;;21.73;69.77;98318.13;5031779;28;43034;-85
2021/08/16 04:58:46;;;;;;;1.77;1.60;;;;;;;21.72;69.70;98327.22;5014060;28;41435;-85
2021/08/16 05:01:14;;;;;;;1.80;1.50;;;;;;;21.66;69.85;98317.16;5013933;28;39428;-85
2021/08/16 05:03:41;;;;;;;1.60;1.43;;;;;;;21.63;69.58;98325.63;5014247;28;40972;-86
2021/08/16 05:06:09;;;;;;;1.23;1.13;;;;;;;21.69;69.57;98332.13;5030137;28;43999;-85
2021/08/16 05:08:37;;;;;;;2.23;1.47;;;;;;;21.73;69.59;98336.16;5012738;28;41806;-85
2021/08/16 05:11:05;;;;;;;1.13;1.03;;;;;;;21.68;69.30;98327.75;5012956;28;38915;-85
2021/08/16 05:13:34;;;;;;;1.73;1.50;;;;;;;21.83;69.45;98345.69;5047391;28;41013;-85
2021/08/16 05:16:02;;;;;;;1.50;1.40;;;;;;;21.79;69.82;98343.50;5031171;28;43357;-85
2021/08/16 05:18:31;;;;;;;1.43;1.33;;;;;;;21.63;69.47;98314.84;5029672;28;43324;-85
2021/08/16 05:21:00;;;;;;;1.20;1.10;;;;;;;21.88;69.33;98349.72;5033386;28;40088;-82
2021/08/16 05:23:27;;;;;;;2.07;1.60;;;;;;;21.95;69.02;98354.19;5032933;28;42489;-89
2021/08/16 05:25:56;;;;;;;1.67;1.57;;;;;;;22.02;69.02;98362.41;5027754;28;43156;-85
2021/08/16 05:28:25;;;;;;;1.70;1.60;;;;;;;22.07;68.59;98351.94;5011468;28;41236;-90
2021/08/16 05:30:54;;;;;;;3.37;1.40;;;;;;;22.06;68.21;98336.78;5013280;28;39709;-89
2021/08/16 05:33:22;;;;;;;1.87;1.13;;;;;;;22.41;67.83;98364.94;5013776;28;41734;-89
2021/08/16 05:35:49;;;;;;;1.57;1.43;;;;;;;22.40;67.06;98339.00;5012731;28;42266;-90
2021/08/16 05:38:17;;;;;;;2.37;2.00;;;;;;;22.75;66.90;98381.47;5030177;28;41316;-89
2021/08/16 05:40:45;;;;;;;2.10;1.53;;;;;;;22.80;66.16;98375.56;5017053;28;39902;-92
2021/08/16 05:43:13;;;;;;;1.33;1.10;;;;;;;22.89;65.41;98379.84;5015927;28;41214;-90
2021/08/16 05:45:40;;;;;;;1.57;1.47;;;;;;;22.89;64.98;98358.25;5012008;28;42074;-90
2021/08/16 05:48:17;;;;;;;1.93;1.60;;;;;;;23.10;64.67;98379.97;5011414;28;41369;-90
2021/08/16 05:50:45;;;;;;;1.27;1.17;;;;;;;23.00;64.62;98365.88;5011867;28;40090;-91
2021/08/16 05:53:14;;;;;;;1.10;1.00;;;;;;;23.08;64.70;98379.31;5029982;28;20233;-89
2021/08/16 05:55:44;;;;;;;1.60;1.50;;;;;;;23.14;64.32;98383.94;5015039;28;42284;-90
2021/08/16 05:58:12;;;;;;;1.37;1.27;;;;;;;23.29;63.99;98409.09;5016433;28;41604;-89
2021/08/16 06:00:40;;;;;;;1.50;1.40;;;;;;;23.25;63.35;98406.94;5017449;28;38945;-91
2021/08/16 06:03:09;;;;;;;1.57;1.30;;;;;;;23.25;63.14;98406.94;5032980;28;42644;-90
2021/08/16 06:05:37;;;;;;;1.30;1.20;;;;;;;23.28;62.60;98409.28;5012058;28;43115;-90
2021/08/16 06:08:05;;;;;;;2.00;1.40;;;;;;;23.36;61.66;98416.47;5016182;28;41457;-89
2021/08/16 06:10:33;;;;;;;1.20;1.10;;;;;;;23.41;61.04;98439.19;5016975;28;40071;-90
2021/08/16 06:13:01;;;;;;;1.20;1.10;;;;;;;23.39;61.14;98422.31;5016533;28;40918;-87
2021/08/16 06:15:28;;;;;;;1.87;1.40;;;;;;;23.49;60.79;98425.56;5013532;28;41861;-87
2021/08/16 06:17:56;;;;;;;1.63;1.40;;;;;;;23.56;60.54;98437.34;5017134;28;42337;-89
2021/08/16 06:20:25;;;;;;;1.43;1.27;;;;;;;23.65;59.74;98435.38;5031542;28;38973;-89
2021/08/16 06:22:53;;;;;;;1.17;1.00;;;;;;;23.70;58.62;98449.19;5029248;28;40838;-90
2021/08/16 06:25:21;;;;;;;1.87;1.40;;;;;;;23.81;58.91;98462.22;5011702;28;41851;-88
2021/08/16 06:27:49;;;;;;;0.93;0.90;;;;;;;23.79;57.16;98453.44;5015236;28;41675;-90
2021/08/16 06:30:16;;;;;;;1.13;0.93;;;;;;;23.81;55.94;98461.38;5031601;28;39103;-88
2021/08/16 06:32:45;;;;;;;0.87;0.87;;;;;;;23.74;55.84;98450.44;5014962;28;41065;-89
2021/08/16 06:35:15;;;;;;;1.20;0.90;;;;;;;23.91;53.98;98495.19;5015478;28;43362;-91
2021/08/16 06:37:45;;;;;;;1.70;0.80;;;;;;;23.91;54.79;98472.72;5012314;28;41435;-90
2021/08/16 06:40:14;;;;;;;2.43;1.20;;;;;;;24.07;53.78;98493.31;5028663;28;41303;-90
2021/08/16 06:42:42;;;;;;;0.97;0.90;;;;;;;24.09;53.99;98489.38;5012799;28;42220;-87
2021/08/16 06:45:11;;;;;;;1.37;0.90;;;;;;;24.20;54.29;98485.34;5015165;28;42329;-88
2021/08/16 06:47:39;;;;;;;1.40;1.03;;;;;;;24.30;53.61;98504.84;5015014;28;42487;-88
2021/08/16 06:50:07;;;;;;;0.70;0.67;;;;;;;24.19;53.45;98480.94;5012924;28;40583;-88
2021/08/16 06:52:35;;;;;;;0.80;0.70;;;;;;;24.23;52.89;98487.69;5015848;28;40808;-89
2021/08/16 06:55:05;;;;;;;1.33;0.93;;;;;;;24.39;53.29;98500.97;5011365;28;41936;-89
2021/08/16 06:57:39;;;;;;;1.07;0.90;;;;;;;24.34;52.62;98479.91;5011375;28;42227;-86
2021/08/16 07:00:08;;;;;;;1.53;1.07;;;;;;;24.57;53.04;98500.53;5005664;28;41050;-86
2021/08/16 07:02:36;;;;;;;0.70;0.70;;;;;;;24.58;52.82;98475.97;5025083;28;43213;-82
2021/08/16 07:05:06;;;;;;;1.27;1.17;;;;;;;24.85;52.88;98500.59;5027126;28;42831;-84
2021/08/16 07:07:33;;;;;;;0.80;0.80;;;;;;;25.02;52.13;98515.53;5012069;28;41289;-86
2021/08/16 07:10:02;;;;;;;1.20;0.83;;;;;;;25.11;52.00;98503.53;5027886;28;39994;-86
2021/08/16 07:12:31;;;;;;;1.17;1.10;;;;;;;25.28;51.03;98504.91;5029104;28;40778;-89
2021/08/16 07:14:59;;;;;;;1.13;1.00;;;;;;;25.58;50.64;98516.38;5027852;28;43901;-85
2021/08/16 07:17:27;;;;;;;0.90;0.80;;;;;;;25.72;50.50;98501.00;5020077;28;42972;-84
2021/08/16 07:19:54;;;;;;;1.43;0.80;;;;;;;26.17;49.03;98525.88;5043112;28;40491;-84
2021/08/16 07:22:22;;;;;;;0.80;0.80;;;;;;;26.26;47.74;98535.50;5010862;28;42292;-88
2021/08/16 07:24:50;;;;;;;1.87;1.27;;;;;;;26.20;47.57;98533.59;4995627;28;41796;-87
2021/08/16 07:27:17;;;;;;;1.23;0.50;;;;;;;26.12;47.98;98531.88;5011414;28;42273;-84
2021/08/16 07:29:47;;;;;;;0.77;0.70;;;;;;;26.08;46.57;98538.78;5028092;28;41131;-87
2021/08/16 07:32:15;;;;;;;0.93;0.70;;;;;;;25.93;44.74;98530.78;5033380;28;41824;-84
2021/08/16 07:34:42;;;;;;;0.80;0.63;;;;;;;26.01;45.58;98537.91;5016786;28;42301;-84
2021/08/16 07:37:12;;;;;;;1.63;1.00;;;;;;;26.13;44.71;98547.97;5035910;28;42361;-79
2021/08/16 07:39:40;;;;;;;1.17;1.07;;;;;;;26.08;44.41;98538.78;5035809;28;40174;-87
2021/08/16 07:42:23;;;;;;;1.27;0.70;;;;;;;26.11;44.09;98555.47;5019059;28;41711;-83
2021/08/16 07:44:53;;;;;;;0.90;0.80;;;;;;;25.96;43.52;98560.22;5016125;28;41975;-83
2021/08/16 07:47:21;;;;;;;0.87;0.60;;;;;;;25.76;44.39;98545.72;5020476;28;41201;-81
2021/08/16 07:49:51;;;;;;;0.30;0.30;;;;;;;25.70;44.54;98560.91;5021048;28;39840;-84
2021/08/16 07:52:19;;;;;;;1.33;0.50;;;;;;;25.62;43.02;98557.50;5018108;28;41691;-85
2021/08/16 07:54:47;;;;;;;1.80;0.67;;;;;;;25.97;42.37;98580.88;5017960;28;43290;-85
2021/08/16 07:57:15;;;;;;;0.80;0.80;;;;;;;26.40;42.36;98576.09;5011433;28;41953;-86
2021/08/16 07:59:43;;;;;;;0.77;0.77;;;;;;;26.90;41.89;98575.81;5017272;28;40367;-85
2021/08/16 08:02:12;;;;;;;2.20;0.40;;;;;;;27.28;41.57;98593.22;5017436;28;41674;-87
2021/08/16 08:04:39;;;;;;;0.43;0.40;;;;;;;27.51;39.70;98599.06;5033722;28;42653;-85
2021/08/16 08:07:07;;;;;;;0.40;0.40;;;;;;;27.81;39.86;98602.22;5033817;28;42037;-84
2021/08/16 08:09:35;;;;;;;0.67;0.50;;;;;;;28.14;39.43;98604.00;5008383;28;40520;-85
2021/08/16 08:12:02;;;;;;;0.50;0.40;;;;;;;28.39;38.89;98604.16;5034815;28;41966;-89
2021/08/16 08:14:30;;;;;;;0.73;0.67;;;;;;;28.13;38.87;98603.19;5017459;28;42114;-89
2021/08/16 08:16:58;;;;;;;1.70;0.60;;;;;;;27.88;38.74;98599.47;5017061;28;41456;-85
2021/08/16 08:19:28;;;;;;;0.40;0.40;;;;;;;27.75;39.01;98596.78;5050424;28;40995;-81
2021/08/16 08:21:55;;;;;;;0.47;0.47;;;;;;;27.68;38.69;98618.56;5034241;28;42514;-80
2021/08/16 08:24:23;;;;;;;0.53;0.40;;;;;;;27.56;37.94;98605.81;5019194;28;42604;-87
2021/08/16 08:26:51;;;;;;;1.63;1.10;;;;;;;27.37;38.60;98600.13;5033346;28;42471;-86
2021/08/16 08:29:18;;;;;;;1.13;0.67;;;;;;;27.34;39.48;98600.53;5019982;28;38894;-86
2021/08/16 08:31:49;;;;;;;0.70;0.70;;;;;;;27.42;38.98;98613.94;5020849;28;41381;-81
2021/08/16 08:34:32;;;;;;;0.43;0.40;;;;;;;27.85;37.52;98629.84;5022551;28;41684;-82
2021/08/16 08:37:00;;;;;;;0.60;0.60;;;;;;;28.49;36.25;98638.06;5020470;28;41458;-86
2021/08/16 08:39:28;;;;;;;0.63;0.50;;;;;;;29.53;34.94;98643.16;5032688;28;39832;-81
2021/08/16 08:41:59;;;;;;;1.40;0.70;;;;;;;30.34;32.84;98672.22;5033440;28;41500;-84
2021/08/16 08:44:28;;;;;;;0.97;0.77;;;;;;;30.75;31.79;98657.06;5030462;28;42963;-82
2021/08/16 08:46:56;;;;;;;0.50;0.50;;;;;;;31.57;31.09;98678.19;5016662;28;41185;-79
2021/08/16 08:49:24;;;;;;;0.57;0.57;;;;;;;31.92;30.77;98680.16;5017172;28;39298;-82
2021/08/16 08:51:53;;;;;;;0.97;0.60;;;;;;;31.89;30.46;98677.91;5051412;28;41858;-83
2021/08/16 08:54:21;;;;;;;0.50;0.50;;;;;;;31.40;30.95;98664.31;5033126;28;42741;-85
2021/08/16 08:56:49;;;;;;;2.23;1.23;;;;;;;30.86;31.09;98645.34;5030624;28;42456;-85
2021/08/16 08:59:18;;;;;;;0.60;0.50;;;;;;;30.27;32.54;98652.34;5013465;28;40250;-88
2021/08/16 09:01:52;;;;;;;1.00;0.57;;;;;;;29.80;32.82;98638.28;5012018;28;41721;-83
2021/08/16 09:04:21;;;;;;;0.50;0.50;;;;;;;29.59;34.00;98638.69;5034547;28;42816;-85
2021/08/16 09:06:49;;;;;;;0.50;0.50;;;;;;;29.53;34.17;98624.06;5010014;28;43086;-81
2021/08/16 09:09:19;;;;;;;1.07;0.67;;;;;;;29.93;33.69;98634.59;4994114;28;39082;-88
2021/08/16 09:11:52;;;;;;;1.03;1.00;;;;;;;30.42;33.54;98641.00;5030075;28;40891;-86
2021/08/16 09:14:21;;;;;;;0.50;0.50;;;;;;;31.42;31.31;98650.41;5000507;28;41938;-83
2021/08/16 09:16:50;;;;;;;0.67;0.67;;;;;;;33.06;30.31;98657.47;5029031;28;41981;-85
2021/08/16 09:19:20;;;;;;;0.67;0.67;;;;;;;34.16;28.10;98664.28;5029007;28;40816;-83
2021/08/16 09:21:55;;;;;;;0.77;0.77;;;;;;;34.40;27.46;98663.03;5031997;28;40762;-82
2021/08/16 09:24:26;;;;;;;0.97;0.70;;;;;;;34.72;27.10;98662.34;5032505;28;42569;-79
2021/08/16 09:26:54;;;;;;;1.00;0.80;;;;;;;34.49;26.01;98672.50;5028540;28;42377;-81
2021/08/16 09:29:22;;;;;;;0.43;0.43;;;;;;;33.95;27.53;98654.09;5029185;28;42050;-81
2021/08/16 09:32:02;;;;;;;0.53;0.53;;;;;;;33.25;28.25;98649.91;5028661;28;40808;-82
2021/08/16 09:34:32;;;;;;;1.03;0.70;;;;;;;32.93;28.75;98651.44;5011485;28;43082;-80
2021/08/16 09:37:04;;;;;;;1.07;0.90;;;;;;;32.77;28.28;98653.88;5010515;28;42091;-79
2021/08/16 09:39:35;;;;;;;0.60;0.60;;;;;;;32.24;27.97;98656.84;5029679;28;40039;-81
2021/08/16 09:42:05;;;;;;;0.77;0.60;;;;;;;31.63;29.21;98649.88;5013353;28;41263;-81
2021/08/16 09:44:33;;;;;;;0.80;0.43;;;;;;;31.15;29.83;98643.69;5028552;28;42988;-80
2021/08/16 09:47:02;;;;;;;0.33;0.33;;;;;;;30.97;29.96;98650.84;5002682;28;41540;-80
2021/08/16 09:49:30;;;;;;;0.67;0.60;;;;;;;30.76;30.23;98645.91;5028912;28;41014;-90
2021/08/16 09:52:07;;;;;;;2.53;1.13;;;;;;;30.57;30.67;98636.03;5012143;28;40824;-79
2021/08/16 09:54:37;;;;;;;1.33;0.60;;;;;;;30.29;31.14;98631.09;5030112;28;43072;-81
2021/08/16 09:57:07;;;;;;;0.90;0.80;;;;;;;30.10;31.08;98630.25;5029840;28;42203;-80
2021/08/16 09:59:36;;;;;;;0.50;0.50;;;;;;;30.21;31.46;98626.75;5031823;28;40208;-81
2021/08/16 10:02:04;;;;;;;0.80;0.80;;;;;;;30.20;31.49;98627.81;5032160;28;41904;-82
2021/08/16 10:04:33;;;;;;;0.87;0.50;;;;;;;29.82;32.19;98600.66;5032345;28;41791;-85
2021/08/16 10:07:00;;;;;;;0.50;0.50;;;;;;;29.94;31.94;98622.59;5032904;28;41810;-82
2021/08/16 10:09:29;;;;;;;0.70;0.53;;;;;;;29.95;33.42;98613.34;5013212;28;38946;-81
2021/08/16 10:11:58;;;;;;;0.60;0.50;;;;;;;29.88;32.79;98588.88;5029340;28;42010;-81
2021/08/16 10:14:31;;;;;;;1.00;0.70;;;;;;;30.12;32.47;98610.91;5013033;28;41679;-84
2021/08/16 10:17:02;;;;;;;0.33;0.33;;;;;;;30.35;32.00;98611.88;5019812;28;42243;-82
2021/08/16 10:19:37;;;;;;;0.60;0.60;;;;;;;30.68;32.11;98616.94;5012047;28;39906;-82
2021/08/16 10:22:06;;;;;;;2.27;0.70;;;;;;;30.94;31.74;98618.50;5029413;28;40935;-89
2021/08/16 10:24:33;;;;;;;0.70;0.70;;;;;;;30.85;32.31;98606.22;5030501;28;42926;-81
2021/08/16 10:27:05;;;;;;;0.70;0.70;;;;;;;31.00;31.18;98619.47;5030051;28;42550;-80
2021/08/16 10:29:33;;;;;;;1.10;0.70;;;;;;;30.87;30.92;98601.34;5045814;28;40785;-80
2021/08/16 10:32:02;;;;;;;0.80;0.60;;;;;;;31.02;30.48;98615.44;5012920;28;42116;-84
2021/08/16 10:34:34;;;;;;;2.70;0.80;;;;;;;31.20;30.32;98613.72;5031986;28;43862;-81
2021/08/16 10:37:08;;;;;;;0.67;0.67;;;;;;;31.45;29.85;98639.00;5029253;28;42557;-78
2021/08/16 10:39:38;;;;;;;1.37;1.00;;;;;;;31.89;29.57;98628.59;5034363;28;40254;-82
2021/08/16 10:42:10;;;;;;;0.63;0.63;;;;;;;32.18;29.54;98630.38;5016195;28;41664;-88
2021/08/16 10:44:40;;;;;;;0.40;0.40;;;;;;;32.41;28.00;98624.03;5028918;28;43130;-83
2021/08/16 10:47:09;;;;;;;0.77;0.77;;;;;;;32.82;28.79;98623.81;5027648;28;42440;-79
2021/08/16 10:49:38;;;;;;;0.90;0.80;;;;;;;33.48;27.43;98643.44;5045398;28;40210;-81
2021/08/16 10:52:07;;;;;;;0.50;0.50;;;;;;;34.13;26.74;98640.06;5048979;28;40763;-82
2021/08/16 10:54:35;;;;;;;0.97;0.83;;;;;;;34.86;24.89;98655.38;5049510;28;43477;-87
2021/08/16 10:57:03;;;;;;;1.83;0.77;;;;;;;35.19;23.75;98665.38;5028132;28;41501;-83
2021/08/16 10:59:33;;;;;;;0.60;0.50;;;;;;;35.04;24.06;98629.41;5049627;28;39043;-80
2021/08/16 11:02:01;;;;;;;1.13;1.07;;;;;;;35.02;24.04;98637.94;5052208;28;40812;-86
2021/08/16 11:04:30;;;;;;;0.60;0.60;;;;;;;35.19;24.78;98622.16;5035163;28;41899;-86
2021/08/16 11:07:01;;;;;;;0.93;0.70;;;;;;;35.10;23.71;98639.41;5029148;28;41261;-83
2021/08/16 11:09:30;;;;;;;0.83;0.70;;;;;;;34.97;24.49;98629.63;5035561;28;40350;-87
2021/08/16 11:12:02;;;;;;;0.77;0.77;;;;;;;35.27;24.64;98623.63;5036627;28;40852;-87
2021/08/16 11:14:33;;;;;;;0.70;0.70;;;;;;;36.12;23.30;98632.84;5033691;28;44367;-82
2021/08/16 11:17:01;;;;;;;0.67;0.67;;;;;;;35.81;23.18;98643.69;5033124;28;42042;-88
2021/08/16 11:19:41;;;;;;;0.60;0.50;;;;;;;35.09;24.03;98627.56;5017418;28;39225;-80
2021/08/16 11:22:08;;;;;;;0.67;0.67;;;;;;;34.26;24.91;98612.22;5037232;28;40589;-82
2021/08/16 11:24:38;;;;;;;0.60;0.60;;;;;;;34.25;25.11;98610.53;5034505;28;43336;-89
2021/08/16 11:27:07;;;;;;;1.03;0.90;;;;;;;35.61;24.41;98618.66;5015501;28;41113;-83
2021/08/16 11:29:39;;;;;;;0.57;0.57;;;;;;;36.65;24.15;98612.44;5015736;28;38890;-85
2021/08/16 11:32:08;;;;;;;0.60;0.60;;;;;;;35.80;24.22;98608.94;5032134;28;40813;-83
2021/08/16 11:34:46;;;;;;;0.77;0.60;;;;;;;34.53;24.51;98635.13;5015567;28;42203;-85
2021/08/16 11:37:16;;;;;;;0.73;0.50;;;;;;;34.47;27.92;98589.44;5028456;28;42449;-87
2021/08/16 11:39:47;;;;;;;0.80;0.80;;;;;;;34.76;25.88;98622.22;5027812;28;40602;-81
2021/08/16 11:42:15;;;;;;;0.90;0.80;;;;;;;34.65;25.94;98579.97;5011507;28;40757;-78